Terminal Aerodrome Forecast
Issued by NWS Cleveland, OH

Home | Current Version | Previous Version | Graphics & Text | Print | Product List | Glossary Off
Versions: 1 2 3 4 5 6 7 8 9 10 11 12 13 14 15 16 17 18 19 20 21 22 23 24 25

000
FTUS41 KCLE 241400 AAA
TAFCLE
TAF AMD
KCLE 241453Z 2415/2518 22005KT P6SM SKC
     FM241900 24006KT P6SM SCT250
     FM242200 22004KT P6SM SCT060
     FM250900 20006KT P6SM BKN250
     FM251600 24012G20KT P6SM SCT035 BKN080=

USA.gov is the U.S. government's official web portal to all federal, state and local government web resources and services.